createdAt,value
2019-03-27T00:00:42.487Z,18.17
2019-03-27T00:03:12.293Z,12.77
2019-03-27T00:05:42.142Z,13.93
2019-03-27T00:08:11.929Z,12.97
2019-03-27T00:10:41.720Z,15.30
2019-03-27T00:13:11.523Z,14.87
2019-03-27T00:15:41.417Z,15.63
2019-03-27T00:18:11.234Z,14.93
2019-03-27T00:20:41.017Z,15.50
2019-03-27T00:23:10.814Z,13.47
2019-03-27T00:25:40.653Z,15.20
2019-03-27T00:28:10.454Z,13.23
2019-03-27T00:30:40.256Z,15.37
2019-03-27T00:33:10.163Z,16.10
2019-03-27T00:35:40.008Z,13.93
2019-03-27T00:38:09.866Z,18.20
2019-03-27T00:40:39.676Z,14.60
2019-03-27T00:43:09.461Z,15.77
2019-03-27T00:45:39.371Z,15.70
2019-03-27T00:48:09.170Z,13.83
2019-03-27T00:50:38.999Z,13.30
2019-03-27T00:53:08.862Z,14.77
2019-03-27T00:55:38.650Z,12.90
2019-03-27T00:58:08.474Z,17.13
2019-03-27T01:01:22.742Z,16.20
2019-03-27T01:03:52.577Z,17.13
2019-03-27T01:06:22.362Z,16.77
2019-03-27T01:08:52.154Z,13.97
2019-03-27T01:11:21.958Z,15.37
2019-03-27T01:13:51.745Z,15.23
2019-03-27T01:16:21.565Z,16.50
2019-03-27T01:18:51.367Z,15.07
2019-03-27T01:21:21.179Z,12.17
2019-03-27T01:23:50.984Z,11.43
2019-03-27T01:26:20.785Z,15.00
2019-03-27T01:28:50.731Z,11.33
2019-03-27T01:31:20.524Z,13.07
2019-03-27T01:33:50.323Z,14.30
2019-03-27T01:36:20.118Z,17.83
2019-03-27T01:38:49.918Z,13.97
2019-03-27T01:41:19.721Z,16.87
2019-03-27T01:43:49.561Z,17.57
2019-03-27T01:46:19.387Z,18.23
2019-03-27T01:48:49.189Z,18.70
2019-03-27T01:51:19.018Z,15.63
2019-03-27T01:53:48.869Z,17.27
2019-03-27T01:56:18.687Z,17.93
2019-03-27T01:58:48.493Z,17.93
2019-03-27T02:01:18.298Z,18.50
2019-03-27T02:03:48.098Z,19.33
2019-03-27T02:06:17.893Z,16.40
2019-03-27T02:08:47.789Z,22.60
2019-03-27T02:11:17.597Z,16.10
2019-03-27T02:13:47.397Z,14.87
2019-03-27T02:16:17.207Z,14.00
2019-03-27T02:18:47.069Z,14.70
2019-03-27T02:21:19.489Z,11.47
2019-03-27T02:23:49.273Z,13.80
2019-03-27T02:26:19.118Z,15.10
2019-03-27T02:28:48.915Z,14.90
2019-03-27T02:31:18.747Z,13.87
2019-03-27T02:33:48.614Z,12.83
2019-03-27T02:36:18.403Z,15.27
2019-03-27T02:38:48.205Z,14.93
2019-03-27T02:41:18.087Z,16.20
2019-03-27T02:43:47.979Z,17.00
2019-03-27T02:46:24.872Z,20.07
2019-03-27T02:48:49.307Z,17.07
2019-03-27T02:51:19.149Z,16.27
2019-03-27T02:53:48.959Z,18.60
2019-03-27T02:56:18.895Z,16.03
2019-03-27T02:58:48.743Z,17.90
2019-03-27T03:01:18.574Z,16.40
2019-03-27T03:03:48.391Z,19.77
2019-03-27T03:06:18.181Z,19.90
2019-03-27T03:08:48.015Z,19.13
2019-03-27T03:11:17.808Z,20.33
2019-03-27T03:13:47.642Z,13.00
2019-03-27T03:16:17.422Z,13.23
2019-03-27T03:18:47.719Z,12.20
2019-03-27T03:21:17.698Z,11.23
2019-03-27T03:23:47.582Z,11.57
2019-03-27T03:26:17.470Z,9.87
2019-03-27T03:28:47.295Z,13.03
2019-03-27T03:31:17.204Z,17.83
2019-03-27T03:33:47.071Z,17.70
2019-03-27T03:36:17.560Z,13.20
2019-03-27T03:38:47.373Z,13.40
2019-03-27T03:41:17.241Z,15.20
2019-03-27T03:43:47.063Z,17.23
2019-03-27T03:46:16.861Z,11.97
2019-03-27T03:48:46.650Z,16.70
2019-03-27T03:51:17.216Z,13.77
2019-03-27T03:53:47.360Z,12.27
2019-03-27T03:56:17.371Z,15.33
2019-03-27T03:58:48.621Z,14.97
2019-03-27T04:01:19.482Z,18.27
2019-03-27T04:03:51.193Z,12.70
2019-03-27T04:06:20.993Z,11.70
2019-03-27T04:08:50.822Z,12.97
2019-03-27T04:11:20.683Z,17.87
2019-03-27T04:13:50.545Z,21.53
2019-03-27T04:16:20.487Z,17.73
2019-03-27T04:18:50.334Z,22.30
2019-03-27T04:21:20.131Z,18.83
2019-03-27T04:23:49.951Z,18.93
2019-03-27T04:26:19.826Z,17.57
2019-03-27T04:28:49.687Z,20.63
2019-03-27T04:31:19.549Z,17.20
2019-03-27T04:33:49.339Z,23.33
2019-03-27T04:36:19.168Z,21.37
2019-03-27T04:38:49.010Z,19.03
2019-03-27T04:41:18.828Z,18.70
2019-03-27T04:43:48.705Z,23.80
2019-03-27T04:46:18.516Z,18.00
2019-03-27T04:48:48.322Z,20.77
2019-03-27T04:51:18.252Z,18.73
2019-03-27T04:53:48.061Z,21.37
2019-03-27T04:56:17.921Z,23.33
2019-03-27T04:58:47.752Z,17.07
2019-03-27T05:01:17.546Z,20.30
2019-03-27T05:03:47.552Z,25.37
2019-03-27T05:06:17.387Z,22.77
2019-03-27T05:08:47.205Z,23.23
2019-03-27T05:11:17.094Z,26.30
2019-03-27T05:13:46.918Z,22.23
2019-03-27T05:16:16.773Z,28.27
2019-03-27T05:18:46.585Z,27.47
2019-03-27T05:21:16.414Z,23.30
2019-03-27T05:23:46.222Z,27.27
2019-03-27T05:26:16.023Z,32.40
2019-03-27T05:28:45.809Z,27.57
2019-03-27T05:31:15.625Z,27.87
2019-03-27T05:33:45.468Z,25.53
2019-03-27T05:36:15.266Z,30.03
2019-03-27T05:38:45.049Z,28.77
2019-03-27T05:41:14.868Z,32.83
2019-03-27T05:43:44.742Z,26.40
2019-03-27T05:46:15.542Z,25.47
2019-03-27T05:48:45.381Z,32.77
2019-03-27T05:51:15.244Z,31.33
2019-03-27T05:53:45.173Z,32.97
2019-03-27T05:56:14.973Z,27.23
2019-03-27T05:58:44.830Z,29.87
2019-03-27T06:01:14.718Z,31.50
2019-03-27T06:03:44.513Z,30.43
2019-03-27T06:06:14.310Z,37.17
2019-03-27T06:08:44.132Z,28.60
2019-03-27T06:11:13.930Z,31.27
2019-03-27T06:13:43.749Z,35.10
2019-03-27T06:16:13.618Z,35.77
2019-03-27T06:18:43.454Z,36.67
2019-03-27T06:21:13.361Z,31.53
2019-03-27T06:23:43.173Z,33.03
2019-03-27T06:26:12.972Z,34.33
2019-03-27T06:28:42.874Z,33.83
2019-03-27T06:31:12.705Z,35.63
2019-03-27T06:33:42.532Z,33.57
2019-03-27T06:36:12.326Z,28.60
2019-03-27T06:38:42.125Z,35.73
2019-03-27T06:41:11.926Z,36.93
2019-03-27T06:43:41.777Z,49.23
2019-03-27T06:46:13.678Z,37.03
2019-03-27T06:48:44.553Z,39.33
2019-03-27T06:51:16.898Z,42.20
2019-03-27T06:53:47.511Z,44.77
2019-03-27T06:56:20.493Z,43.93
2019-03-27T06:58:54.796Z,43.97
2019-03-27T07:01:24.599Z,36.83
2019-03-27T07:03:54.421Z,37.97
2019-03-27T07:06:24.189Z,37.50
2019-03-27T07:08:54.269Z,34.20
2019-03-27T07:11:24.150Z,28.73
2019-03-27T07:13:54.078Z,25.60
2019-03-27T07:16:23.989Z,31.40
2019-03-27T07:18:53.878Z,27.17
2019-03-27T07:21:23.694Z,24.33
2019-03-27T07:23:53.803Z,23.23
2019-03-27T07:26:23.593Z,20.93
2019-03-27T07:28:53.456Z,27.03
2019-03-27T07:31:23.262Z,20.97
2019-03-27T07:33:53.085Z,20.03
2019-03-27T07:36:22.921Z,22.47
2019-03-27T07:38:52.754Z,17.00
2019-03-27T07:41:22.569Z,14.87
2019-03-27T07:43:52.466Z,14.60
2019-03-27T07:46:22.312Z,13.20
2019-03-27T07:48:54.194Z,15.20
2019-03-27T07:51:23.680Z,22.40
2019-03-27T07:53:53.525Z,15.33
2019-03-27T07:56:23.443Z,17.47
2019-03-27T07:58:53.428Z,16.80
2019-03-27T08:01:23.345Z,15.77
2019-03-27T08:03:53.143Z,23.53
2019-03-27T08:06:22.920Z,27.43
2019-03-27T08:08:52.748Z,23.80
2019-03-27T08:11:22.658Z,21.90
2019-03-27T08:13:52.530Z,21.20
2019-03-27T08:16:22.465Z,16.17
2019-03-27T08:18:52.255Z,20.47
2019-03-27T08:21:22.094Z,19.20
2019-03-27T08:23:51.974Z,24.23
2019-03-27T08:26:21.804Z,20.47
2019-03-27T08:28:51.673Z,21.57
2019-03-27T08:31:21.563Z,17.60
2019-03-27T08:33:51.374Z,16.43
2019-03-27T08:36:21.170Z,11.37
2019-03-27T08:38:50.978Z,12.50
2019-03-27T08:41:20.939Z,12.00
2019-03-27T08:43:50.752Z,16.40
2019-03-27T08:46:20.534Z,20.93
2019-03-27T08:48:50.318Z,22.00
2019-03-27T08:51:20.175Z,12.23
2019-03-27T08:53:50.006Z,18.23
2019-03-27T08:56:19.866Z,11.47
2019-03-27T08:58:49.889Z,17.07
2019-03-27T09:01:19.690Z,14.33
2019-03-27T09:03:49.649Z,13.10
2019-03-27T09:06:32.810Z,8.07
2019-03-27T09:08:51.110Z,11.37
2019-03-27T09:11:21.101Z,11.97
2019-03-27T09:13:51.029Z,13.57
2019-03-27T09:16:21.005Z,14.73
2019-03-27T09:18:50.937Z,11.90
2019-03-27T09:21:21.202Z,11.07
2019-03-27T09:23:51.020Z,12.83
2019-03-27T09:26:21.172Z,10.77
2019-03-27T09:28:50.982Z,11.20
2019-03-27T09:31:20.935Z,9.37
2019-03-27T09:33:50.784Z,8.97
2019-03-27T09:36:20.805Z,9.18
2019-03-27T09:38:50.691Z,8.98
2019-03-27T09:41:21.571Z,14.98
2019-03-27T09:43:51.606Z,14.25
2019-03-27T09:46:21.521Z,12.78
2019-03-27T09:48:51.445Z,11.75
2019-03-27T09:51:21.272Z,12.18
2019-03-27T09:53:53.118Z,9.73
2019-03-27T09:56:22.621Z,11.25
2019-03-27T09:58:52.471Z,11.05
2019-03-27T10:01:22.385Z,10.05
2019-03-27T10:03:52.238Z,9.60
2019-03-27T10:06:22.051Z,10.15
2019-03-27T10:08:51.926Z,7.50
2019-03-27T10:11:23.828Z,7.40
2019-03-27T10:13:53.335Z,7.90
2019-03-27T10:16:23.134Z,8.88
2019-03-27T10:18:53.006Z,9.98
2019-03-27T10:21:22.866Z,8.35
2019-03-27T10:23:52.755Z,9.95
2019-03-27T10:26:22.590Z,10.23
2019-03-27T10:28:52.487Z,9.40
2019-03-27T10:31:22.297Z,22.62
2019-03-27T10:33:52.200Z,9.83
2019-03-27T10:36:22.161Z,15.68
2019-03-27T10:38:51.974Z,10.28
2019-03-27T10:41:21.825Z,14.68
2019-03-27T10:43:51.979Z,10.05
2019-03-27T10:46:21.868Z,12.37
2019-03-27T10:48:53.031Z,12.20
2019-03-27T10:51:23.126Z,14.90
2019-03-27T10:53:53.006Z,12.33
2019-03-27T10:56:22.873Z,12.53
2019-03-27T10:58:52.723Z,14.20
2019-03-27T11:01:22.535Z,10.30
2019-03-27T11:03:52.646Z,11.53
2019-03-27T11:06:22.509Z,10.10
2019-03-27T11:08:52.398Z,10.07
2019-03-27T11:11:22.313Z,8.93
2019-03-27T11:13:52.130Z,12.83
2019-03-27T11:16:21.976Z,11.87
2019-03-27T11:18:51.857Z,11.77
2019-03-27T11:21:21.704Z,11.33
2019-03-27T11:23:51.526Z,13.67
2019-03-27T11:26:21.423Z,11.13
2019-03-27T11:28:51.254Z,11.73
2019-03-27T11:31:21.066Z,13.60
2019-03-27T11:33:50.862Z,10.10
2019-03-27T11:36:20.789Z,13.37
2019-03-27T11:38:50.588Z,11.80
2019-03-27T11:41:20.466Z,11.57
2019-03-27T11:43:54.965Z,10.13
2019-03-27T11:46:21.860Z,10.87
2019-03-27T11:48:51.663Z,11.67
2019-03-27T11:51:21.487Z,10.47
2019-03-27T11:53:51.289Z,14.97
2019-03-27T11:56:21.078Z,9.43
2019-03-27T11:58:50.901Z,10.97
2019-03-27T12:01:20.720Z,12.13
2019-03-27T12:03:50.523Z,11.97
2019-03-27T12:06:20.334Z,11.87
2019-03-27T12:08:50.920Z,12.37
2019-03-27T12:11:20.934Z,14.23
2019-03-27T12:13:50.742Z,13.83
2019-03-27T12:16:20.616Z,14.73
2019-03-27T12:18:50.422Z,15.60
2019-03-27T12:21:20.258Z,17.90
2019-03-27T12:23:50.117Z,14.00
2019-03-27T12:26:19.913Z,11.90
2019-03-27T12:28:49.705Z,17.90
2019-03-27T12:31:19.534Z,11.17
2019-03-27T12:33:49.370Z,10.10
2019-03-27T12:36:19.212Z,11.37
2019-03-27T12:38:49.078Z,15.30
2019-03-27T12:41:18.957Z,11.53
2019-03-27T12:43:48.818Z,13.57
2019-03-27T12:46:18.659Z,19.63
2019-03-27T12:48:48.446Z,21.90
2019-03-27T12:51:18.339Z,21.30
2019-03-27T12:53:48.134Z,20.83
2019-03-27T12:56:17.930Z,20.20
2019-03-27T12:58:47.785Z,15.03
2019-03-27T13:01:17.593Z,12.30
2019-03-27T13:03:47.450Z,15.40
2019-03-27T13:06:17.242Z,19.90
2019-03-27T13:08:49.512Z,16.23
2019-03-27T13:11:18.595Z,16.47
2019-03-27T13:13:48.382Z,17.27
2019-03-27T13:16:18.247Z,16.23
2019-03-27T13:18:48.037Z,17.53
2019-03-27T13:21:26.224Z,16.53
2019-03-27T13:23:49.439Z,13.17
2019-03-27T13:26:19.302Z,13.87
2019-03-27T13:28:49.424Z,20.73
2019-03-27T13:31:19.365Z,14.23
2019-03-27T13:33:50.516Z,18.53
2019-03-27T13:36:20.627Z,12.27
2019-03-27T13:38:50.444Z,17.60
2019-03-27T13:41:20.263Z,17.80
2019-03-27T13:43:50.180Z,11.83
2019-03-27T13:46:20.052Z,14.03
2019-03-27T13:48:49.810Z,12.03
2019-03-27T13:51:19.609Z,20.80
2019-03-27T13:53:49.421Z,17.67
2019-03-27T13:56:19.393Z,14.40
2019-03-27T13:58:49.200Z,19.33
2019-03-27T14:01:19.099Z,14.37
2019-03-27T14:03:48.957Z,12.47
2019-03-27T14:06:18.854Z,18.20
2019-03-27T14:08:48.664Z,18.60
2019-03-27T14:11:18.456Z,22.33
2019-03-27T14:13:48.350Z,25.00
2019-03-27T14:16:18.243Z,24.23
2019-03-27T14:18:49.067Z,26.43
2019-03-27T14:21:19.116Z,21.57
2019-03-27T14:23:48.918Z,16.97
2019-03-27T14:26:18.766Z,13.20
2019-03-27T14:28:48.574Z,15.63
2019-03-27T14:31:18.375Z,22.00
2019-03-27T14:33:48.190Z,15.90
2019-03-27T14:36:18.077Z,16.27
2019-03-27T14:38:47.909Z,13.60
2019-03-27T14:41:17.774Z,19.80
2019-03-27T14:43:47.577Z,19.20
2019-03-27T14:46:17.390Z,23.73
2019-03-27T14:48:47.205Z,19.57
2019-03-27T14:51:17.005Z,26.53
2019-03-27T14:53:46.815Z,16.97
2019-03-27T14:56:16.654Z,17.60
2019-03-27T14:58:46.449Z,15.80
2019-03-27T15:01:16.242Z,14.77
2019-03-27T15:03:46.125Z,12.73
2019-03-27T15:06:15.936Z,17.87
2019-03-27T15:08:45.785Z,15.53
2019-03-27T15:11:15.590Z,21.90
2019-03-27T15:13:45.441Z,22.60
2019-03-27T15:16:15.260Z,33.40
2019-03-27T15:18:45.074Z,16.43
2019-03-27T15:21:14.945Z,15.87
2019-03-27T15:23:44.842Z,12.13
2019-03-27T15:26:14.633Z,13.03
2019-03-27T15:28:44.373Z,17.17
2019-03-27T15:31:20.408Z,11.70
2019-03-27T15:33:45.729Z,11.13
2019-03-27T15:36:15.548Z,22.20
2019-03-27T15:38:45.423Z,15.60
2019-03-27T15:41:15.246Z,23.53
2019-03-27T15:43:45.097Z,16.93
2019-03-27T15:46:14.977Z,15.80
2019-03-27T15:48:44.873Z,11.60
2019-03-27T15:51:14.697Z,13.53
2019-03-27T15:53:47.199Z,15.33
2019-03-27T15:56:16.058Z,17.20
2019-03-27T15:58:45.858Z,17.57
2019-03-27T16:01:15.761Z,19.13
2019-03-27T16:03:45.562Z,12.27
2019-03-27T16:06:15.390Z,14.10
2019-03-27T16:08:45.345Z,12.87
2019-03-27T16:11:15.234Z,16.77
2019-03-27T16:13:45.126Z,18.13
2019-03-27T16:16:15.042Z,19.33
2019-03-27T16:18:44.866Z,27.60
2019-03-27T16:21:14.741Z,28.37
2019-03-27T16:23:44.593Z,28.50
2019-03-27T16:26:14.441Z,19.33
2019-03-27T16:28:44.334Z,17.63
2019-03-27T16:31:14.225Z,18.83
2019-03-27T16:33:44.039Z,15.63
2019-03-27T16:36:13.844Z,28.83
2019-03-27T16:38:43.651Z,32.37
2019-03-27T16:41:13.497Z,32.67
2019-03-27T16:43:44.351Z,26.70
2019-03-27T16:46:14.379Z,21.50
2019-03-27T16:48:44.214Z,25.57
2019-03-27T16:51:14.037Z,26.63
2019-03-27T16:53:43.837Z,19.53
2019-03-27T16:56:13.739Z,25.47
2019-03-27T16:58:43.545Z,25.20
2019-03-27T17:01:13.430Z,26.53
2019-03-27T17:03:43.237Z,32.30
2019-03-27T17:06:13.752Z,35.93
2019-03-27T17:08:43.626Z,26.70
2019-03-27T17:11:13.449Z,31.80
2019-03-27T17:13:43.264Z,47.73
2019-03-27T17:16:13.063Z,52.43
2019-03-27T17:18:42.864Z,48.37
2019-03-27T17:21:12.657Z,44.60
2019-03-27T17:23:42.575Z,40.10
2019-03-27T17:26:12.523Z,36.70
2019-03-27T17:28:42.308Z,35.37
2019-03-27T17:31:12.154Z,33.03
2019-03-27T17:33:41.978Z,39.80
2019-03-27T17:36:11.782Z,39.20
2019-03-27T17:38:41.602Z,44.97
2019-03-27T17:41:11.410Z,43.53
2019-03-27T17:43:41.218Z,43.57
2019-03-27T17:46:11.085Z,50.47
2019-03-27T17:48:40.894Z,57.90
2019-03-27T17:51:10.719Z,56.93
2019-03-27T17:53:40.513Z,62.40
2019-03-27T17:56:10.322Z,65.97
2019-03-27T17:58:40.236Z,70.17
2019-03-27T18:01:10.010Z,67.77
2019-03-27T18:03:39.824Z,68.60
2019-03-27T18:06:09.638Z,67.23
2019-03-27T18:08:39.430Z,70.67
2019-03-27T18:11:09.269Z,78.20
2019-03-27T18:13:39.150Z,87.53
2019-03-27T18:16:08.940Z,94.20
2019-03-27T18:18:38.794Z,116.77
2019-03-27T18:21:08.597Z,111.63
2019-03-27T18:23:46.013Z,110.63
2019-03-27T18:26:09.921Z,110.17
2019-03-27T18:28:39.747Z,94.60
2019-03-27T18:31:09.554Z,91.60
2019-03-27T18:33:39.356Z,100.50
2019-03-27T18:36:09.238Z,95.27
2019-03-27T18:38:39.068Z,85.57
2019-03-27T18:41:08.874Z,85.40
2019-03-27T18:43:38.713Z,75.63
2019-03-27T18:46:08.510Z,75.60
2019-03-27T18:48:38.325Z,70.73
2019-03-27T18:51:08.126Z,68.27
2019-03-27T18:53:37.975Z,77.67
2019-03-27T18:56:07.856Z,84.47
2019-03-27T18:58:37.714Z,92.27
2019-03-27T19:01:07.872Z,100.57
2019-03-27T19:03:37.707Z,80.17
2019-03-27T19:06:07.542Z,79.40
2019-03-27T19:08:37.425Z,78.83
2019-03-27T19:11:07.213Z,88.47
2019-03-27T19:13:37.025Z,94.67
2019-03-27T19:16:06.849Z,97.83
2019-03-27T19:18:36.662Z,100.30
2019-03-27T19:21:06.545Z,107.57
2019-03-27T19:23:36.354Z,103.93
2019-03-27T19:26:06.154Z,102.40
2019-03-27T19:28:35.957Z,95.03
2019-03-27T19:31:06.047Z,97.30
2019-03-27T19:33:35.946Z,85.97
2019-03-27T19:36:06.426Z,93.23
2019-03-27T19:38:36.818Z,92.33
2019-03-27T19:41:06.924Z,95.07
2019-03-27T19:43:36.885Z,91.23
2019-03-27T19:46:06.770Z,91.30
2019-03-27T19:48:36.617Z,84.83
2019-03-27T19:51:06.462Z,86.47
2019-03-27T19:53:36.274Z,98.10
2019-03-27T19:56:06.092Z,93.07
2019-03-27T19:58:36.002Z,92.33
2019-03-27T20:01:06.121Z,87.83
2019-03-27T20:03:35.982Z,92.13
2019-03-27T20:06:05.795Z,98.83
2019-03-27T20:08:35.589Z,92.90
2019-03-27T20:11:07.839Z,96.30
2019-03-27T20:13:37.629Z,99.37
2019-03-27T20:16:07.447Z,106.10
2019-03-27T20:18:37.254Z,111.43
2019-03-27T20:21:07.090Z,116.93
2019-03-27T20:23:36.976Z,121.30
2019-03-27T20:26:06.868Z,119.73
2019-03-27T20:28:36.682Z,122.10
2019-03-27T20:31:06.479Z,125.40
2019-03-27T20:33:38.232Z,122.73
2019-03-27T20:36:07.850Z,134.97
2019-03-27T20:38:37.678Z,136.93
2019-03-27T20:41:07.525Z,120.67
2019-03-27T20:43:37.585Z,115.57
2019-03-27T20:46:07.391Z,121.17
2019-03-27T20:48:37.218Z,114.73
2019-03-27T20:51:07.251Z,111.20
2019-03-27T20:53:37.151Z,119.53
2019-03-27T20:56:06.970Z,106.50
2019-03-27T20:58:36.824Z,118.77
2019-03-27T21:01:06.802Z,122.03
2019-03-27T21:03:36.586Z,119.50
2019-03-27T21:06:06.472Z,110.30
2019-03-27T21:08:36.432Z,98.03
2019-03-27T21:11:06.286Z,108.43
2019-03-27T21:13:36.090Z,108.27
2019-03-27T21:16:05.928Z,112.57
2019-03-27T21:18:35.837Z,93.87
2019-03-27T21:21:05.672Z,105.90
2019-03-27T21:23:35.566Z,124.33
2019-03-27T21:26:05.383Z,114.87
2019-03-27T21:28:35.185Z,107.03
2019-03-27T21:31:05.001Z,113.40
2019-03-27T21:33:34.797Z,103.43
2019-03-27T21:36:04.609Z,108.07
2019-03-27T21:38:34.439Z,107.03
2019-03-27T21:41:04.359Z,92.43
2019-03-27T21:43:34.145Z,103.00
2019-03-27T21:46:03.971Z,102.03
2019-03-27T21:48:33.882Z,97.83
2019-03-27T21:51:03.690Z,93.60
2019-03-27T21:53:33.557Z,105.93
2019-03-27T21:56:03.973Z,106.83
2019-03-27T21:58:33.758Z,109.47
2019-03-27T22:01:03.649Z,102.67
2019-03-27T22:03:33.453Z,103.27
2019-03-27T22:06:03.837Z,113.13
2019-03-27T22:08:33.633Z,121.47
2019-03-27T22:11:03.449Z,138.13
2019-03-27T22:13:33.281Z,117.47
2019-03-27T22:16:03.116Z,127.83
2019-03-27T22:18:32.919Z,117.97
2019-03-27T22:21:02.719Z,109.63
2019-03-27T22:23:32.513Z,103.00
2019-03-27T22:26:02.322Z,94.70
2019-03-27T22:28:32.133Z,90.50
2019-03-27T22:31:01.926Z,85.97
2019-03-27T22:33:31.770Z,90.07
2019-03-27T22:36:01.574Z,96.00
2019-03-27T22:38:31.392Z,80.73
2019-03-27T22:41:01.308Z,88.83
2019-03-27T22:43:31.172Z,88.47
2019-03-27T22:46:00.978Z,88.20
2019-03-27T22:48:30.777Z,97.13
2019-03-27T22:51:00.590Z,91.83
2019-03-27T22:53:30.425Z,87.90
2019-03-27T22:56:00.294Z,92.57
2019-03-27T22:58:30.106Z,87.90
2019-03-27T23:01:00.112Z,97.13
2019-03-27T23:03:29.922Z,87.70
2019-03-27T23:05:59.810Z,86.60
2019-03-27T23:08:29.613Z,92.60
2019-03-27T23:10:59.447Z,92.70
2019-03-27T23:13:29.315Z,91.23
2019-03-27T23:15:59.417Z,93.27
2019-03-27T23:18:29.281Z,85.43
2019-03-27T23:20:59.096Z,100.27
2019-03-27T23:23:28.918Z,87.10
2019-03-27T23:26:03.332Z,87.27
2019-03-27T23:28:30.238Z,85.40
2019-03-27T23:31:00.064Z,78.63
2019-03-27T23:33:29.997Z,80.27
2019-03-27T23:35:59.794Z,91.43
2019-03-27T23:38:29.589Z,95.17
2019-03-27T23:40:59.393Z,84.23
2019-03-27T23:43:29.301Z,88.10
2019-03-27T23:45:59.325Z,90.73
2019-03-27T23:48:29.143Z,89.87
2019-03-27T23:50:58.960Z,91.47
2019-03-27T23:53:28.830Z,86.67
2019-03-27T23:56:00.657Z,89.60
2019-03-27T23:58:30.495Z,90.47
